createdAt,value
2017-06-08T04:46:26.516Z,432
2017-06-08T04:46:51.973Z,432
2017-06-08T04:47:17.454Z,432
2017-06-08T04:47:42.931Z,428
2017-06-08T04:48:08.405Z,424
2017-06-08T04:48:33.859Z,420
2017-06-08T04:48:59.319Z,412
2017-06-08T04:49:24.783Z,400
2017-06-08T04:49:50.252Z,396
2017-06-08T04:50:15.718Z,388
2017-06-08T04:50:41.190Z,380
2017-06-08T04:51:06.636Z,364
2017-06-08T04:51:32.125Z,352
2017-06-08T04:51:57.589Z,340
2017-06-08T04:52:23.070Z,336
2017-06-08T04:52:48.525Z,340
2017-06-08T04:53:14.029Z,336
2017-06-08T04:53:39.726Z,344
2017-06-08T04:54:05.044Z,352
2017-06-08T04:54:30.550Z,356
2017-06-08T04:54:56.201Z,360
2017-06-08T04:55:21.518Z,364
2017-06-08T04:55:46.978Z,376
2017-06-08T04:56:12.468Z,384
2017-06-08T04:56:37.958Z,380
2017-06-08T04:57:03.427Z,380
2017-06-08T04:57:28.905Z,384
2017-06-08T04:57:54.353Z,388
2017-06-08T04:58:19.807Z,388
2017-06-08T04:58:45.263Z,408
2017-06-08T04:59:10.754Z,412
2017-06-08T04:59:36.318Z,404
2017-06-08T05:00:01.737Z,416
2017-06-08T05:00:27.201Z,432
2017-06-08T05:00:52.695Z,456
2017-06-08T05:01:18.158Z,448
2017-06-08T05:01:43.670Z,464
2017-06-08T05:02:09.103Z,504
2017-06-08T05:02:34.575Z,500
2017-06-08T05:03:00.048Z,488
2017-06-08T05:03:25.539Z,480
2017-06-08T05:03:50.999Z,460
2017-06-08T05:04:16.475Z,488
2017-06-08T05:04:41.951Z,516
2017-06-08T05:05:07.401Z,560
2017-06-08T05:05:32.873Z,592
2017-06-08T05:05:58.336Z,608
2017-06-08T05:06:23.824Z,608
2017-06-08T05:06:49.300Z,612
2017-06-08T05:07:14.752Z,620
2017-06-08T05:07:40.213Z,636
2017-06-08T05:08:05.688Z,628
2017-06-08T05:08:31.147Z,640
2017-06-08T05:08:56.609Z,640
2017-06-08T05:09:22.091Z,628
2017-06-08T05:09:47.575Z,608
2017-06-08T05:10:13.045Z,596
2017-06-08T05:10:38.505Z,588
2017-06-08T05:11:04.001Z,576
2017-06-08T05:11:29.442Z,556
2017-06-08T05:11:54.918Z,536
2017-06-08T05:12:20.372Z,508
2017-06-08T05:12:45.841Z,492
2017-06-08T05:13:11.313Z,484
2017-06-08T05:13:36.774Z,484
2017-06-08T05:14:02.235Z,476
2017-06-08T05:14:27.720Z,472
2017-06-08T05:14:53.246Z,468
2017-06-08T05:15:18.729Z,476
2017-06-08T05:15:44.175Z,496
2017-06-08T05:16:09.632Z,504
2017-06-08T05:16:35.095Z,512
2017-06-08T05:17:00.571Z,536
2017-06-08T05:17:26.089Z,572
2017-06-08T05:17:51.536Z,612
2017-06-08T05:18:17.016Z,652
2017-06-08T05:18:42.470Z,652
2017-06-08T05:19:07.941Z,624
2017-06-08T05:19:33.462Z,580
2017-06-08T05:19:58.849Z,584
2017-06-08T05:20:24.326Z,664
2017-06-08T05:20:49.815Z,728
2017-06-08T05:21:15.256Z,756
2017-06-08T05:21:40.691Z,804
2017-06-08T05:22:06.176Z,868
2017-06-08T05:22:31.646Z,900
2017-06-08T05:22:57.120Z,896
2017-06-08T05:23:22.586Z,892
2017-06-08T05:23:48.034Z,912
2017-06-08T05:24:13.502Z,968
2017-06-08T05:24:39.003Z,1032
2017-06-08T05:25:04.559Z,1048
2017-06-08T05:25:30.041Z,1052
2017-06-08T05:25:55.505Z,1064
2017-06-08T05:26:20.963Z,1096
2017-06-08T05:26:46.410Z,1112
2017-06-08T05:27:11.913Z,1116
2017-06-08T05:27:37.351Z,1144
2017-06-08T05:28:02.847Z,1144
2017-06-08T05:28:28.310Z,1148
2017-06-08T05:28:53.797Z,1136
2017-06-08T05:29:19.236Z,1136
2017-06-08T05:29:44.701Z,1144
2017-06-08T05:30:10.203Z,1120
2017-06-08T05:30:35.672Z,1104
2017-06-08T05:31:01.140Z,1088
2017-06-08T05:31:26.664Z,1072
2017-06-08T05:31:52.298Z,1076
2017-06-08T05:32:17.677Z,1108
2017-06-08T05:32:43.137Z,1148
2017-06-08T05:33:08.612Z,1168
2017-06-08T05:33:34.072Z,1184
2017-06-08T05:33:59.536Z,1224
2017-06-08T05:34:25.042Z,1304
2017-06-08T05:34:50.461Z,1352
2017-06-08T05:35:15.973Z,1340
2017-06-08T05:35:41.394Z,1324
2017-06-08T05:36:06.847Z,1312
2017-06-08T05:36:32.339Z,1292
2017-06-08T05:36:57.797Z,1276
2017-06-08T05:37:23.268Z,1280
2017-06-08T05:37:48.734Z,1280
2017-06-08T05:38:14.213Z,1304
2017-06-08T05:38:39.691Z,1348
2017-06-08T05:39:05.156Z,1392
2017-06-08T05:39:30.610Z,1468
2017-06-08T05:39:56.085Z,1580
2017-06-08T05:40:21.554Z,1692
2017-06-08T05:40:47.047Z,1804
2017-06-08T05:41:12.478Z,1896
2017-06-08T05:41:37.981Z,1984
2017-06-08T05:42:03.471Z,1996
2017-06-08T05:42:28.936Z,1948
2017-06-08T05:42:54.416Z,1912
2017-06-08T05:43:19.881Z,1940
2017-06-08T05:43:45.332Z,2000
2017-06-08T05:44:10.806Z,2076
2017-06-08T05:44:36.270Z,2200
2017-06-08T05:45:01.715Z,2304
2017-06-08T05:45:27.180Z,2508
2017-06-08T05:45:52.674Z,2784
2017-06-08T05:46:18.180Z,2980
2017-06-08T05:46:43.639Z,3020
2017-06-08T05:47:09.099Z,2944
2017-06-08T05:47:34.588Z,2836
2017-06-08T05:48:00.051Z,2724
2017-06-08T05:48:25.515Z,2668
2017-06-08T05:48:50.966Z,2632
2017-06-08T05:49:16.434Z,2640
2017-06-08T05:49:41.897Z,2688
2017-06-08T05:50:07.395Z,2756
2017-06-08T05:50:32.845Z,2732
2017-06-08T05:50:58.387Z,2616
2017-06-08T05:51:23.877Z,2492
2017-06-08T05:51:49.381Z,2428
2017-06-08T05:52:14.839Z,2420
2017-06-08T05:52:40.298Z,2444
2017-06-08T05:53:05.765Z,2524
2017-06-08T05:53:31.220Z,2556
2017-06-08T05:53:56.682Z,2524
2017-06-08T05:54:22.173Z,2492
2017-06-08T05:54:47.659Z,2500
2017-06-08T05:55:13.155Z,2528
2017-06-08T05:55:38.597Z,2600
2017-06-08T05:56:04.052Z,2620
2017-06-08T05:56:29.538Z,2608
2017-06-08T05:56:55.023Z,2636
2017-06-08T05:57:20.487Z,2668
2017-06-08T05:57:45.973Z,2644
2017-06-08T05:58:11.429Z,2612
2017-06-08T05:58:36.908Z,2628
2017-06-08T05:59:02.377Z,2708
2017-06-08T05:59:27.825Z,2844
2017-06-08T05:59:53.303Z,2844
2017-06-08T06:00:18.772Z,2780
2017-06-08T06:00:44.265Z,2736
2017-06-08T06:01:09.739Z,2764
2017-06-08T06:01:35.219Z,2820
2017-06-08T06:02:00.682Z,2944
2017-06-08T06:02:26.127Z,3016
2017-06-08T06:02:51.598Z,3084
2017-06-08T06:03:17.069Z,3144
2017-06-08T06:03:42.580Z,3184
2017-06-08T06:04:08.012Z,3192
2017-06-08T06:04:33.475Z,3332
2017-06-08T06:04:58.987Z,3556
2017-06-08T06:05:24.434Z,3804
2017-06-08T06:05:49.924Z,4032
2017-06-08T06:06:15.387Z,4444
2017-06-08T06:06:40.863Z,5044
2017-06-08T06:07:06.271Z,5628
2017-06-08T06:07:31.737Z,6088
2017-06-08T06:07:57.174Z,6344
2017-06-08T06:08:22.649Z,6448
2017-06-08T06:08:48.131Z,6516
2017-06-08T06:09:13.612Z,6576
2017-06-08T06:09:39.043Z,6508
2017-06-08T06:10:04.507Z,6284
2017-06-08T06:10:29.993Z,6084
2017-06-08T06:10:55.442Z,6008
2017-06-08T06:11:20.899Z,6164
2017-06-08T06:11:46.422Z,6316
2017-06-08T06:12:11.825Z,6432
2017-06-08T06:12:37.313Z,6420
2017-06-08T06:13:03.350Z,6400
2017-06-08T06:13:28.622Z,6504
2017-06-08T06:13:54.101Z,6568
2017-06-08T06:14:19.560Z,6172
2017-06-08T06:14:45.031Z,6060
2017-06-08T06:15:10.551Z,5892
2017-06-08T06:15:35.968Z,5716
2017-06-08T06:16:01.424Z,5536
2017-06-08T06:16:26.896Z,5620
2017-06-08T06:16:52.376Z,5536
2017-06-08T06:17:17.809Z,5412
2017-06-08T06:17:43.285Z,5432
2017-06-08T06:18:08.748Z,5408
2017-06-08T06:18:34.228Z,5412
2017-06-08T06:18:59.701Z,5576
2017-06-08T06:19:25.167Z,5756
2017-06-08T06:19:50.621Z,5796
2017-06-08T06:20:16.080Z,5800
2017-06-08T06:20:41.546Z,5832
2017-06-08T06:21:07.039Z,6056
2017-06-08T06:21:32.464Z,6364
2017-06-08T06:21:57.926Z,6956
2017-06-08T06:22:23.388Z,7720
2017-06-08T06:22:48.900Z,8220
2017-06-08T06:23:14.378Z,8204
2017-06-08T06:23:39.833Z,7884
2017-06-08T06:24:05.343Z,7272
2017-06-08T06:24:30.825Z,6412
2017-06-08T06:24:56.259Z,5728
2017-06-08T06:25:21.771Z,5380
2017-06-08T06:25:47.264Z,5184
2017-06-08T06:26:12.704Z,5132
2017-06-08T06:26:38.195Z,4892
2017-06-08T06:27:03.634Z,4732
2017-06-08T06:27:29.092Z,4636
2017-06-08T06:27:54.549Z,4572
2017-06-08T06:28:20.061Z,4412
2017-06-08T06:28:45.576Z,4180
2017-06-08T06:29:11.005Z,4000
2017-06-08T06:29:36.502Z,4056
2017-06-08T06:30:01.960Z,4308
2017-06-08T06:30:27.424Z,4572
2017-06-08T06:30:52.912Z,4668
2017-06-08T06:31:18.366Z,4624
2017-06-08T06:31:43.831Z,4672
2017-06-08T06:32:09.287Z,4744
2017-06-08T06:32:34.758Z,4876
2017-06-08T06:33:00.256Z,5036
2017-06-08T06:33:25.688Z,5148
2017-06-08T06:33:51.201Z,5276
2017-06-08T06:34:16.650Z,5532
2017-06-08T06:34:42.122Z,5780
2017-06-08T06:35:07.579Z,5976
2017-06-08T06:35:33.052Z,6124
2017-06-08T06:35:58.508Z,6192
2017-06-08T06:36:23.968Z,6176
2017-06-08T06:36:49.445Z,6176
2017-06-08T06:37:14.881Z,6512
2017-06-08T06:37:40.376Z,7192
2017-06-08T06:38:05.818Z,8116
2017-06-08T06:38:31.285Z,9132
2017-06-08T06:38:56.759Z,9864
2017-06-08T06:39:22.207Z,10008
2017-06-08T06:39:47.658Z,9488
2017-06-08T06:40:13.125Z,8512
2017-06-08T06:40:38.606Z,7492
2017-06-08T06:41:04.101Z,6800
2017-06-08T06:41:29.563Z,6648
2017-06-08T06:41:55.062Z,6772
2017-06-08T06:42:20.559Z,6952
2017-06-08T06:42:46.051Z,7008
2017-06-08T06:43:11.537Z,6836
2017-06-08T06:43:37.022Z,6596
2017-06-08T06:44:02.486Z,6156
2017-06-08T06:44:27.974Z,5680
2017-06-08T06:44:53.461Z,5292
2017-06-08T06:45:18.947Z,5056
2017-06-08T06:45:44.430Z,5028
2017-06-08T06:46:09.918Z,5140
2017-06-08T06:46:35.395Z,5316
2017-06-08T06:47:00.860Z,5532
2017-06-08T06:47:26.350Z,5812
2017-06-08T06:47:51.844Z,6104
2017-06-08T06:48:17.332Z,6320
2017-06-08T06:48:42.816Z,6544
2017-06-08T06:49:08.299Z,6728
2017-06-08T06:49:33.762Z,6944
2017-06-08T06:49:59.233Z,7048
2017-06-08T06:50:24.706Z,6984
2017-06-08T06:50:50.198Z,6876
2017-06-08T06:51:15.689Z,7064
2017-06-08T06:51:41.192Z,7452
2017-06-08T06:52:06.687Z,7724
2017-06-08T06:52:32.178Z,7532
2017-06-08T06:52:57.649Z,6940
2017-06-08T06:53:23.150Z,6184
2017-06-08T06:53:48.621Z,5604
2017-06-08T06:54:14.099Z,5264
2017-06-08T06:54:39.594Z,5032
2017-06-08T06:55:05.063Z,4840
2017-06-08T06:55:30.548Z,4588
2017-06-08T06:55:56.014Z,4336
2017-06-08T06:56:21.491Z,4196
2017-06-08T06:56:47.000Z,4188
2017-06-08T06:57:12.464Z,4216
2017-06-08T06:57:37.953Z,4384
2017-06-08T06:58:03.433Z,4576
2017-06-08T06:58:28.915Z,4744
2017-06-08T06:58:54.420Z,4756
2017-06-08T06:59:19.894Z,4644
2017-06-08T06:59:45.375Z,4480
2017-06-08T07:00:10.895Z,4356
2017-06-08T07:00:36.331Z,4316
2017-06-08T07:01:01.784Z,4376
2017-06-08T07:01:27.273Z,4476
2017-06-08T07:01:52.768Z,4544
2017-06-08T07:02:18.246Z,4480
2017-06-08T07:02:43.731Z,4336
2017-06-08T07:03:09.235Z,4148
2017-06-08T07:03:34.717Z,3976
2017-06-08T07:04:00.205Z,3948
2017-06-08T07:04:25.685Z,3896
2017-06-08T07:04:51.173Z,3804
2017-06-08T07:05:16.655Z,3776
2017-06-08T07:05:42.133Z,4020
2017-06-08T07:06:07.614Z,4476
2017-06-08T07:06:33.116Z,4824
2017-06-08T07:06:58.605Z,4924
2017-06-08T07:07:24.075Z,4796
2017-06-08T07:07:49.562Z,4592
2017-06-08T07:08:15.045Z,4512
2017-06-08T07:08:40.499Z,4544
2017-06-08T07:09:05.973Z,4536
2017-06-08T07:09:31.439Z,4516
2017-06-08T07:09:56.937Z,4612
2017-06-08T07:10:22.434Z,4844
2017-06-08T07:10:47.914Z,5140
2017-06-08T07:11:13.434Z,5252
2017-06-08T07:11:38.924Z,5196
2017-06-08T07:12:04.393Z,5064
2017-06-08T07:12:29.865Z,4996
2017-06-08T07:12:55.351Z,5124
2017-06-08T07:13:20.819Z,5272
2017-06-08T07:13:46.285Z,5472
2017-06-08T07:14:11.759Z,5628
2017-06-08T07:14:37.229Z,5680
2017-06-08T07:15:02.697Z,5636
2017-06-08T07:15:28.177Z,5528
2017-06-08T07:15:53.666Z,5468
2017-06-08T07:16:19.144Z,5504
2017-06-08T07:16:44.626Z,5576
2017-06-08T07:17:10.101Z,5560
2017-06-08T07:17:35.564Z,5464
2017-06-08T07:18:01.035Z,5312
2017-06-08T07:18:26.505Z,5184
2017-06-08T07:18:51.998Z,5116
2017-06-08T07:19:17.464Z,5128
2017-06-08T07:19:42.936Z,5124
2017-06-08T07:20:08.422Z,5016
2017-06-08T07:20:33.882Z,4824
2017-06-08T07:20:59.368Z,4644
2017-06-08T07:21:24.855Z,4488
2017-06-08T07:21:50.357Z,4328
2017-06-08T07:22:15.830Z,4136
2017-06-08T07:22:41.327Z,3960
2017-06-08T07:23:06.819Z,3864
2017-06-08T07:23:32.281Z,3816
2017-06-08T07:23:57.748Z,3784
2017-06-08T07:24:23.227Z,3744
2017-06-08T07:24:48.700Z,3740
2017-06-08T07:25:14.166Z,3792
2017-06-08T07:25:39.663Z,3948
2017-06-08T07:26:05.137Z,4196
2017-06-08T07:26:30.608Z,4500
2017-06-08T07:26:56.088Z,4856
2017-06-08T07:27:21.552Z,5220
2017-06-08T07:27:47.051Z,5528
2017-06-08T07:28:12.528Z,5756
2017-06-08T07:28:38.001Z,5936
2017-06-08T07:29:03.475Z,6172
2017-06-08T07:29:28.959Z,6460
2017-06-08T07:29:54.434Z,6788
2017-06-08T07:30:19.929Z,7152
2017-06-08T07:30:45.414Z,7380
2017-06-08T07:31:10.866Z,7348
2017-06-08T07:31:36.344Z,7168
2017-06-08T07:32:01.839Z,6904
2017-06-08T07:32:27.323Z,6616
2017-06-08T07:32:52.825Z,6308
2017-06-08T07:33:18.278Z,6112
2017-06-08T07:33:43.756Z,6088
2017-06-08T07:34:09.247Z,6088
2017-06-08T07:34:34.727Z,6068
2017-06-08T07:35:00.206Z,6024
2017-06-08T07:35:25.703Z,5952
2017-06-08T07:35:51.176Z,5868
2017-06-08T07:36:16.642Z,5824
2017-06-08T07:36:42.127Z,5952
2017-06-08T07:37:07.591Z,6248
2017-06-08T07:37:33.052Z,6704
2017-06-08T07:37:58.540Z,7180
2017-06-08T07:38:24.029Z,7524
2017-06-08T07:38:49.552Z,7436
2017-06-08T07:39:15.002Z,6932
2017-06-08T07:39:40.485Z,6416
2017-06-08T07:40:05.976Z,6088
2017-06-08T07:40:31.453Z,5924
2017-06-08T07:40:56.918Z,5764
2017-06-08T07:41:22.384Z,5524
2017-06-08T07:41:47.847Z,5316
2017-06-08T07:42:13.301Z,5488
2017-06-08T07:42:38.759Z,5704
2017-06-08T07:43:04.236Z,5784
2017-06-08T07:43:29.715Z,5840
2017-06-08T07:43:55.184Z,5924
2017-06-08T07:44:20.659Z,6100
2017-06-08T07:44:46.153Z,6144
2017-06-08T07:45:11.653Z,6368
2017-06-08T07:45:37.124Z,6924
2017-06-08T07:46:02.580Z,7648
2017-06-08T07:46:28.041Z,8384
2017-06-08T07:46:53.513Z,9020
2017-06-08T07:47:19.006Z,9204
2017-06-08T07:47:44.484Z,8920
2017-06-08T07:48:09.968Z,8792
2017-06-08T07:48:35.448Z,8860
2017-06-08T07:49:00.921Z,8740
2017-06-08T07:49:26.412Z,8440
2017-06-08T07:49:51.868Z,8172
2017-06-08T07:50:17.362Z,7584
2017-06-08T07:50:42.849Z,7924
2017-06-08T07:51:08.312Z,7784
2017-06-08T07:51:33.794Z,7220
2017-06-08T07:51:59.285Z,6520
2017-06-08T07:52:24.782Z,6164
2017-06-08T07:52:50.251Z,5860
2017-06-08T07:53:15.731Z,5436
2017-06-08T07:53:41.225Z,5044
2017-06-08T07:54:06.705Z,4976
2017-06-08T07:54:32.211Z,5024
2017-06-08T07:54:57.678Z,4960
2017-06-08T07:55:23.152Z,4880
2017-06-08T07:55:48.631Z,4804
2017-06-08T07:56:14.118Z,4840
2017-06-08T07:56:39.598Z,5268
2017-06-08T07:57:05.076Z,5560
2017-06-08T07:57:30.569Z,5744
2017-06-08T07:57:56.051Z,5980
2017-06-08T07:58:21.518Z,6044
2017-06-08T07:58:47.006Z,6056
2017-06-08T07:59:12.459Z,5952
2017-06-08T07:59:37.957Z,5820
2017-06-08T08:00:03.436Z,5756
2017-06-08T08:00:28.916Z,5672
2017-06-08T08:00:54.394Z,5480
2017-06-08T08:01:19.900Z,5204
2017-06-08T08:01:45.362Z,5088
2017-06-08T08:02:10.847Z,5040
2017-06-08T08:02:36.372Z,4896
2017-06-08T08:03:01.905Z,4720
2017-06-08T08:03:27.356Z,4988
2017-06-08T08:03:52.824Z,5348
2017-06-08T08:04:18.288Z,5768
2017-06-08T08:04:43.766Z,6292
2017-06-08T08:05:09.238Z,6912
2017-06-08T08:05:34.723Z,7264
2017-06-08T08:06:00.188Z,7440
2017-06-08T08:06:25.668Z,7636
2017-06-08T08:06:51.142Z,7728
2017-06-08T08:07:16.588Z,7616
2017-06-08T08:07:42.056Z,7564
2017-06-08T08:08:07.544Z,7420
2017-06-08T08:08:33.013Z,7348
2017-06-08T08:08:58.508Z,7488
2017-06-08T08:09:24.034Z,7676
2017-06-08T08:09:49.523Z,7496
2017-06-08T08:10:14.987Z,7204
2017-06-08T08:10:40.469Z,7044
2017-06-08T08:11:05.952Z,6992
2017-06-08T08:11:31.421Z,7000
2017-06-08T08:11:56.877Z,6992
2017-06-08T08:12:22.337Z,6868
2017-06-08T08:12:47.780Z,6552
2017-06-08T08:13:13.226Z,6164
2017-06-08T08:13:38.732Z,5876
2017-06-08T08:14:04.208Z,5604
2017-06-08T08:14:29.698Z,5260
2017-06-08T08:14:55.161Z,5020
2017-06-08T08:15:20.642Z,4956
2017-06-08T08:15:46.111Z,5224
2017-06-08T08:16:11.582Z,6052
2017-06-08T08:16:37.069Z,6928
2017-06-08T08:17:02.559Z,7464
2017-06-08T08:17:28.033Z,7812
2017-06-08T08:17:53.502Z,8076
2017-06-08T08:18:18.971Z,8208
2017-06-08T08:18:44.475Z,8340
2017-06-08T08:19:09.941Z,8452
2017-06-08T08:19:35.434Z,8388
2017-06-08T08:20:00.923Z,8296
2017-06-08T08:20:26.428Z,8320
2017-06-08T08:20:51.928Z,8320
2017-06-08T08:21:17.410Z,8348
2017-06-08T08:21:42.900Z,8432
2017-06-08T08:22:08.361Z,8408
2017-06-08T08:22:33.828Z,8272
2017-06-08T08:22:59.312Z,8196
2017-06-08T08:23:24.773Z,8184
2017-06-08T08:23:50.246Z,8156
2017-06-08T08:24:15.736Z,8216
2017-06-08T08:24:41.209Z,8404
2017-06-08T08:25:06.695Z,8620
2017-06-08T08:25:32.175Z,8828
2017-06-08T08:25:57.663Z,9040
2017-06-08T08:26:23.191Z,9436
2017-06-08T08:26:48.633Z,9828
2017-06-08T08:27:14.095Z,10148
2017-06-08T08:27:39.588Z,10280
2017-06-08T08:28:05.049Z,10084
2017-06-08T08:28:30.523Z,9668
2017-06-08T08:28:56.020Z,9260
2017-06-08T08:29:21.490Z,9000
2017-06-08T08:29:47.011Z,8960
2017-06-08T08:30:12.439Z,9000
2017-06-08T08:30:37.916Z,8992
2017-06-08T08:31:03.413Z,8960
2017-06-08T08:31:28.884Z,9140
2017-06-08T08:31:54.370Z,9872
2017-06-08T08:32:19.856Z,10956
2017-06-08T08:32:45.360Z,12040
2017-06-08T08:33:10.876Z,12508
2017-06-08T08:33:36.334Z,12228
2017-06-08T08:34:01.851Z,11708
2017-06-08T08:34:27.330Z,11088
2017-06-08T08:34:52.809Z,10724
2017-06-08T08:35:18.288Z,10480
2017-06-08T08:35:43.755Z,10928
2017-06-08T08:36:09.243Z,11500
2017-06-08T08:36:34.710Z,12360
2017-06-08T08:37:00.189Z,13572
2017-06-08T08:37:25.679Z,14704
2017-06-08T08:37:51.147Z,15436
2017-06-08T08:38:16.646Z,15660
2017-06-08T08:38:42.105Z,15256
2017-06-08T08:39:07.611Z,14632
2017-06-08T08:39:33.054Z,14156
2017-06-08T08:39:58.500Z,13816
2017-06-08T08:40:23.976Z,13544
2017-06-08T08:40:49.448Z,13224
2017-06-08T08:41:14.938Z,12840
2017-06-08T08:41:40.429Z,12532
2017-06-08T08:42:05.905Z,12216
2017-06-08T08:42:31.369Z,11752
2017-06-08T08:42:56.850Z,11128
2017-06-08T08:43:22.348Z,10520
2017-06-08T08:43:47.828Z,10052
2017-06-08T08:44:13.302Z,10068
2017-06-08T08:44:38.771Z,10376
2017-06-08T08:45:04.271Z,11192
2017-06-08T08:45:29.738Z,12132
2017-06-08T08:45:55.238Z,12956
2017-06-08T08:46:20.686Z,13416
2017-06-08T08:46:46.161Z,13816
2017-06-08T08:47:11.655Z,13920
2017-06-08T08:47:37.118Z,13824
2017-06-08T08:48:02.579Z,13524
2017-06-08T08:48:28.084Z,13216
2017-06-08T08:48:53.563Z,12988
2017-06-08T08:49:19.048Z,12688
2017-06-08T08:49:44.513Z,12404
2017-06-08T08:50:09.990Z,12216
2017-06-08T08:50:35.454Z,11928
2017-06-08T08:51:00.943Z,11552
2017-06-08T08:51:26.414Z,11236
2017-06-08T08:51:51.891Z,11076
2017-06-08T08:52:17.372Z,11024
2017-06-08T08:52:42.811Z,11124
2017-06-08T08:53:08.286Z,11408
2017-06-08T08:53:33.751Z,11792
2017-06-08T08:53:59.209Z,11980
2017-06-08T08:54:24.671Z,12168
2017-06-08T08:54:50.173Z,12484
2017-06-08T08:55:15.662Z,12648
2017-06-08T08:55:41.164Z,12748
2017-06-08T08:56:06.654Z,12752
2017-06-08T08:56:32.108Z,12924
2017-06-08T08:56:57.575Z,13084
2017-06-08T08:57:23.057Z,13044
2017-06-08T08:57:48.536Z,12984
2017-06-08T08:58:14.016Z,12792
2017-06-08T08:58:39.512Z,12416
2017-06-08T08:59:04.987Z,12092
2017-06-08T08:59:30.453Z,11932
2017-06-08T08:59:55.939Z,11856
2017-06-08T09:00:21.404Z,11972
2017-06-08T09:00:46.888Z,12076
2017-06-08T09:01:12.365Z,12364
2017-06-08T09:01:37.819Z,12396
2017-06-08T09:02:03.310Z,12604
2017-06-08T09:02:28.771Z,12916
2017-06-08T09:02:54.252Z,13184
2017-06-08T09:03:19.697Z,13200
2017-06-08T09:03:45.167Z,13048
2017-06-08T09:04:10.668Z,12812
2017-06-08T09:04:36.139Z,12784
2017-06-08T09:05:01.640Z,13080
2017-06-08T09:05:27.110Z,13140
2017-06-08T09:05:52.577Z,13068
2017-06-08T09:06:18.070Z,12812
2017-06-08T09:06:43.551Z,12560
2017-06-08T09:07:09.049Z,12316
2017-06-08T09:07:34.527Z,12104
2017-06-08T09:08:00.033Z,12304
2017-06-08T09:08:25.516Z,12156
2017-06-08T09:08:51.012Z,12212
2017-06-08T09:09:16.491Z,12232
2017-06-08T09:09:41.941Z,12892
2017-06-08T09:10:07.441Z,13424
2017-06-08T09:10:32.936Z,13556
2017-06-08T09:10:58.418Z,13596
2017-06-08T09:11:23.880Z,13660
2017-06-08T09:11:49.358Z,13896
2017-06-08T09:12:14.857Z,14164
2017-06-08T09:12:40.330Z,14320
2017-06-08T09:13:05.812Z,14644
2017-06-08T09:13:31.279Z,13888
2017-06-08T09:13:56.770Z,14228
2017-06-08T09:14:22.247Z,13320
2017-06-08T09:14:47.731Z,12656
2017-06-08T09:15:13.203Z,11928
2017-06-08T09:15:38.684Z,11616
2017-06-08T09:16:04.185Z,11852
2017-06-08T09:16:29.673Z,12364
2017-06-08T09:16:55.146Z,12904
2017-06-08T09:17:20.629Z,13328
2017-06-08T09:17:46.107Z,13704
2017-06-08T09:18:11.584Z,13976
2017-06-08T09:18:37.064Z,14160
2017-06-08T09:19:02.555Z,13912
2017-06-08T09:19:28.045Z,13940
2017-06-08T09:19:53.519Z,13952
2017-06-08T09:20:19.018Z,13896
2017-06-08T09:20:44.487Z,13536
2017-06-08T09:21:09.970Z,13172
2017-06-08T09:21:35.473Z,12668
2017-06-08T09:22:00.976Z,12416
2017-06-08T09:22:26.458Z,12324
2017-06-08T09:22:51.944Z,12400
2017-06-08T09:23:17.424Z,12232
2017-06-08T09:23:42.940Z,11856
2017-06-08T09:24:08.416Z,11524
2017-06-08T09:24:33.888Z,11172
2017-06-08T09:24:59.385Z,11012
2017-06-08T09:25:24.886Z,10568
2017-06-08T09:25:50.377Z,9920
2017-06-08T09:26:15.833Z,9624
2017-06-08T09:26:41.331Z,9516
2017-06-08T09:27:06.843Z,9700
2017-06-08T09:27:32.316Z,10276
2017-06-08T09:27:57.799Z,10588
2017-06-08T09:28:23.270Z,11008
2017-06-08T09:28:48.739Z,11372
2017-06-08T09:29:14.224Z,11724
2017-06-08T09:29:39.690Z,11956
2017-06-08T09:30:05.164Z,12008
2017-06-08T09:30:30.674Z,11772
2017-06-08T09:30:56.169Z,11236
2017-06-08T09:31:21.625Z,10704
2017-06-08T09:31:47.106Z,10224
2017-06-08T09:32:12.576Z,10040
2017-06-08T09:32:38.044Z,9960
2017-06-08T09:33:03.507Z,9932
2017-06-08T09:33:28.986Z,9952
2017-06-08T09:33:54.439Z,9888
2017-06-08T09:34:19.932Z,9904
2017-06-08T09:34:45.394Z,9984
2017-06-08T09:35:10.880Z,10092
2017-06-08T09:35:36.366Z,10348
2017-06-08T09:36:01.851Z,10456
2017-06-08T09:36:27.326Z,10748
2017-06-08T09:36:52.794Z,10644
2017-06-08T09:37:18.289Z,10400
2017-06-08T09:37:43.776Z,10148
2017-06-08T09:38:09.299Z,10136
2017-06-08T09:38:34.770Z,10148
2017-06-08T09:39:00.253Z,10488
2017-06-08T09:39:25.757Z,10724
2017-06-08T09:39:51.293Z,11112
2017-06-08T09:40:16.720Z,11392
2017-06-08T09:40:42.218Z,11252
2017-06-08T09:41:07.656Z,11184
2017-06-08T09:41:33.147Z,11176
2017-06-08T09:41:58.615Z,11336
2017-06-08T09:42:24.085Z,11540
2017-06-08T09:42:49.573Z,11572
2017-06-08T09:43:15.063Z,11548
2017-06-08T09:43:40.574Z,11464
2017-06-08T09:44:06.034Z,11532
2017-06-08T09:44:31.550Z,11288
2017-06-08T09:44:57.014Z,10908
2017-06-08T09:45:22.498Z,10576
2017-06-08T09:45:47.974Z,10560
2017-06-08T09:46:13.441Z,10736
2017-06-08T09:46:38.901Z,10936
2017-06-08T09:47:04.377Z,10944
2017-06-08T09:47:29.885Z,10748
2017-06-08T09:47:55.360Z,10648
2017-06-08T09:48:20.878Z,10824
2017-06-08T09:48:46.291Z,11048
2017-06-08T09:49:11.754Z,11180
2017-06-08T09:49:37.250Z,11228
2017-06-08T09:50:02.730Z,11308
2017-06-08T09:50:28.201Z,11364
2017-06-08T09:50:53.671Z,11396
2017-06-08T09:51:19.145Z,11264
2017-06-08T09:51:44.638Z,11160
2017-06-08T09:52:10.111Z,11080
2017-06-08T09:52:35.595Z,10996
2017-06-08T09:53:01.057Z,10760
2017-06-08T09:53:26.535Z,10684
2017-06-08T09:53:52.008Z,10700
2017-06-08T09:54:17.502Z,10628
2017-06-08T09:54:42.968Z,10696
2017-06-08T09:55:08.460Z,10628
2017-06-08T09:55:33.932Z,10476
2017-06-08T09:55:59.421Z,10232
2017-06-08T09:56:24.897Z,10324
2017-06-08T09:56:50.374Z,9980
2017-06-08T09:57:15.871Z,9648
2017-06-08T09:57:41.338Z,9604
2017-06-08T09:58:06.813Z,9404
2017-06-08T09:58:32.285Z,9304
2017-06-08T09:58:57.772Z,9124
2017-06-08T09:59:23.254Z,8992
2017-06-08T09:59:48.738Z,9024
2017-06-08T10:00:14.208Z,9056
2017-06-08T10:00:39.717Z,9084
2017-06-08T10:01:05.170Z,9168
2017-06-08T10:01:30.639Z,9236
2017-06-08T10:01:56.097Z,9336
2017-06-08T10:02:21.573Z,9524
2017-06-08T10:02:47.034Z,9592
2017-06-08T10:03:12.521Z,9672
2017-06-08T10:03:38.006Z,9748
2017-06-08T10:04:03.459Z,9836
2017-06-08T10:04:28.935Z,9940
2017-06-08T10:04:54.406Z,9900
2017-06-08T10:05:19.889Z,9940
2017-06-08T10:05:45.366Z,9828
2017-06-08T10:06:10.836Z,10048
2017-06-08T10:06:36.314Z,10196
2017-06-08T10:07:01.768Z,10284
2017-06-08T10:07:27.255Z,10308
2017-06-08T10:07:52.733Z,10356
2017-06-08T10:08:18.242Z,10284
2017-06-08T10:08:43.709Z,10056
2017-06-08T10:09:09.194Z,9832
2017-06-08T10:09:34.675Z,9592
2017-06-08T10:10:00.187Z,9452
2017-06-08T10:10:25.653Z,9276
2017-06-08T10:10:51.106Z,9104
2017-06-08T10:11:16.591Z,9032
2017-06-08T10:11:42.060Z,8912
2017-06-08T10:12:07.507Z,8876
2017-06-08T10:12:32.982Z,8832
2017-06-08T10:12:58.471Z,8808
2017-06-08T10:13:23.934Z,8820
2017-06-08T10:13:49.394Z,8888
2017-06-08T10:14:14.879Z,8888
2017-06-08T10:14:40.335Z,8908
2017-06-08T10:15:05.849Z,8824
2017-06-08T10:15:31.337Z,8836
2017-06-08T10:15:56.791Z,8748
2017-06-08T10:16:22.311Z,8860
2017-06-08T10:16:47.802Z,9080
2017-06-08T10:17:13.265Z,9420
2017-06-08T10:17:38.706Z,9332
2017-06-08T10:18:04.179Z,9104
2017-06-08T10:18:29.665Z,8992
2017-06-08T10:18:55.149Z,9064
2017-06-08T10:19:20.645Z,9156
2017-06-08T10:19:46.083Z,9168
2017-06-08T10:20:11.563Z,9040
2017-06-08T10:20:37.042Z,9012
2017-06-08T10:21:02.528Z,9016
2017-06-08T10:21:27.971Z,9100
2017-06-08T10:21:53.453Z,9172
2017-06-08T10:22:18.906Z,9268
2017-06-08T10:22:44.402Z,9356
2017-06-08T10:23:09.848Z,9436
2017-06-08T10:23:35.337Z,9512